METAR Data
IDs: Format: Raw Decoded Include TAF

Data at: 0911 UTC 10 Dec 2022

FNLU 100900Z 28008KT 240V320 9999 SCT020 29/24 Q1011

TAF FNLU 100500Z 1006/1112 16005KT 9999 SCT020
  BECMG 1010/1012 27012KT FEW023CB
  BECMG 1018/1020 21006KT


FNCA 100800Z 18005KT 9999 FEW010 BKN015 28/24 Q1012

TAF FNCA 092300Z 1000/1012 18008KT 7000 SCT010 BKN020
  TEMPO 1002/1007 DZ FEW022TCU
  BECMG 1010/1012 4500 -TSRA FEW022CB


No METAR found for FNBG

TAF FNBG 092300Z 1000/1012 29008KT 9999 SCT015

FNHU 100800Z 28006KT 9999 SCT012 BKN080 21/17 Q1022

TAF FNHU 092300Z 1000/1012 21008KT 9999 FEW012 BKN050
  BECMG 1010/1012 -RA FEW023CB


No METAR found for FNUE

TAF FNUE 092300Z 1000/1012 27006KT 9999 FEW015 FEW025TCU BKN050

FNGI 100800Z 34004KT 9999 FEW018 29/14 Q1017

TAF FNGI 092300Z 1000/1012 18007KT 9999 FEW014

No METAR found for FNUB

TAF FNUB 092300Z 1000/1012 27008KT 9999 SCT018

No METAR found for FNMO

TAF FNMO 092300Z 1000/1012 21005KT 9999 BKN014
  BECMG 1008/1010 28010KT FEW018


FNUG 100800Z 15004KT 9999 BKN020 24/21 Q1016
No TAF found for FNUG

No METAR found for FNMA

TAF FNMA 092300Z 1000/1012 27006KT 8000 SCT015 FEW018CB

No METAR found for FNSA

TAF FNSA 092300Z 1000/1012 35007KT 8000 BKN015 FEW023CB

FNSO 100800Z 25005KT 9000 BKN015 SCT050 29/25 Q////

TAF FNSO 092300Z 1000/1012 24008KT 8000 BKN015 FEW018CB
  PROB30
  TEMPO 1008/1012 4000 TS -RA


No METAR found for FNBC
No TAF found for FNBC

No METAR found for FNSU
No TAF found for FNSU

FNDU 100800Z 00000KT 9999 SCT020 FEW030CB ///// Q////

TAF FNDU 092300Z 1000/1012 VRB02KT 9999 SCT020 FEW030CB

No METAR found for FNME

TAF FNME 092300Z 1000/1012 26006KT 9999 SCT020 FEW025CB

FNCT 100800Z 00000KT 9999 BKN015 26/22 Q1011

TAF FNCT 092300Z 1000/1012 28007KT 9999 SCT016

FNKU 100800Z 23006KT 9999 SCT017 19/// Q1020

TAF FNKU 092300Z 1000/1012 18005KT 9999 SCT016 FEW020TCU